Portada
METAR-TAF:

METAR-TAF

Aeroports :

Al-Kuwait, Kuwait

latitud: 29-13N, longitud: 047-59E, altitud: 55 m

Observació

L'informe es va fer fa 20 minuts, a les 11:00 UTC
Vent 7 kt del Nord-Oest
Temperatura 22°C
Humitat 33%
Pressió 1016 hPa
Visibilitat 10 km o més
sense núvols per sota de 1500 mi sense presència de cumulonimbus.

METAR: OKBK 201100Z 32007KT CAVOK 22/05 Q1016 NOSIG

Hora: 14:20 (11:20 UTC)

Pronòstic

L'informe es va fer fa 12 hores i 35 minuts, a les 22:45 UTC
Pronòstic vàlid del 20 a les 00 UTC al 21 a les 06 UTC
Vent 8 kt del Nord
Visibilitat: 7000 m
Temporalment
l' 20 a les 00 UTC al 20 a les 07 UTC
Vent 3 kt amb direcció variable
Visibilitat: 4000 m
calitja

TAF: OKBK 192245Z 2000/2106 35008KT 7000 NSC TEMPO 2000/2007 VRB03KT 4000 HZ

Observacions i pronòstics meteorològics de més de 4000 aeroports (METAR i TAF).

Les estacions disponibles són els punts grocs i vermells al mapa.

Posi el ratolí al punt desitjat per veure el nom de l'estació.

Feu clic per veure les observacions i els pronòstics meteorològics.

Per canviar el mapa: feu clic els botons verds amb una creu de color negre per apropar; al botó verd amb un guió per allunyar la imatge; o en les fletxes verdes per a mapes adjacents.


METAR-TAF: